الصفحة الرئيسية
METAR-TAF:

METAR-TAF

مطار :

كوبانغ, إندونيسيا

دائرة عرض: 10-10-17S, خط طول: 123-40-16E, ارتفاع: 102 متر

METAR: مفقودة

زمن: 01:02 (18:02 UTC)

توقعات

تاريخ ووقت الإصدار 1ساعة و 2 دقيقة قبل الساعة 17:00UTC
التوقعات صالحة من22 الساعة 18 UTC إلى 23 الساعة 18 UTC
ريح 4 عقدة من الشرق
الرؤية: 8000 متر
غيوم قليلة على ارتفاع 1800 قدم

TAF: WATT 221700Z 2218/2318 10004KT 8000 FEW018

أرصاد الطقس والتوقعات من أكثر من 4000 مطار (تقارير الطقس للمطار METAR والتنبؤ بالطقس بالمطارTAF).

المحطات المتاحة هي النقط الصفراء والحمراء على الخريطة.

حرك المؤشر فوق النقطة لمعرفة اسم المحطة.

ثم انقر لمعرفة أرصاد وتوقعات الطقس.

لتغيير الخارطة: اضغط على الأزرار الخضراء مع رمز الصليب الأسود للتكبير. على الزر الأخضر مع شرطة للتصغير، أو على الأسهم الخضراء للخرائط المجاورة.


METAR-TAF: